createdAt,value
2019-04-30T00:00:07.494Z,0
2019-04-30T00:00:48.077Z,0
2019-04-30T00:01:28.640Z,0
2019-04-30T00:02:09.192Z,0
2019-04-30T00:09:53.869Z,0
2019-04-30T00:10:36.696Z,0
2019-04-30T00:11:15.825Z,0
2019-04-30T00:11:55.734Z,0
2019-04-30T00:12:35.820Z,0
2019-04-30T00:13:20.480Z,0
2019-04-30T00:13:58.769Z,0
2019-04-30T00:14:38.473Z,0
2019-04-30T00:15:19.374Z,0
2019-04-30T00:15:58.481Z,0
2019-04-30T00:22:02.079Z,0
2019-04-30T00:22:46.949Z,0
2019-04-30T00:23:27.045Z,0
2019-04-30T00:24:06.077Z,0
2019-04-30T00:24:49.652Z,0
2019-04-30T00:25:28.479Z,0
2019-04-30T00:26:10.209Z,0
2019-04-30T00:26:51.914Z,0
2019-04-30T00:27:30.112Z,0
2019-04-30T00:33:31.709Z,0
2019-04-30T00:34:12.277Z,0
2019-04-30T00:34:52.844Z,0
2019-04-30T00:35:35.399Z,0
2019-04-30T00:36:14.780Z,0
2019-04-30T00:36:55.938Z,0
2019-04-30T00:37:35.289Z,0
2019-04-30T00:38:15.617Z,0
2019-04-30T00:38:56.189Z,0
2019-04-30T00:39:36.752Z,0
2019-04-30T00:45:44.639Z,0
2019-04-30T00:46:27.168Z,0
2019-04-30T00:47:04.815Z,0
2019-04-30T00:47:44.363Z,0
2019-04-30T00:48:29.596Z,0
2019-04-30T00:49:09.720Z,0
2019-04-30T00:49:47.214Z,0
2019-04-30T00:50:29.008Z,0
2019-04-30T00:57:12.121Z,0
2019-04-30T00:57:52.697Z,0
2019-04-30T00:58:33.275Z,0
2019-04-30T00:59:15.068Z,0
2019-04-30T00:59:54.843Z,0
2019-04-30T01:00:35.214Z,0
2019-04-30T01:01:15.576Z,0
2019-04-30T01:01:56.362Z,0
2019-04-30T01:02:36.683Z,0
2019-04-30T01:08:41.738Z,0
2019-04-30T01:09:22.298Z,0
2019-04-30T01:10:02.842Z,0
2019-04-30T01:10:43.394Z,0
2019-04-30T01:11:25.358Z,0
2019-04-30T01:12:05.452Z,0
2019-04-30T01:12:47.881Z,0
2019-04-30T01:13:26.082Z,0
2019-04-30T01:14:06.630Z,0
2019-04-30T01:20:11.811Z,0
2019-04-30T01:20:52.393Z,0
2019-04-30T01:21:32.959Z,0
2019-04-30T01:24:46.862Z,0
2019-04-30T01:25:28.804Z,0
2019-04-30T01:26:08.715Z,0
2019-04-30T01:26:50.462Z,0
2019-04-30T01:27:29.162Z,0
2019-04-30T01:28:10.761Z,0
2019-04-30T01:28:53.652Z,0
2019-04-30T01:29:38.016Z,0
2019-04-30T01:30:13.217Z,0
2019-04-30T01:36:16.582Z,0
2019-04-30T01:36:58.891Z,0
2019-04-30T01:37:38.645Z,0
2019-04-30T01:38:18.857Z,0
2019-04-30T01:38:59.291Z,0
2019-04-30T01:39:39.458Z,0
2019-04-30T01:40:20.047Z,0
2019-04-30T01:41:00.599Z,0
2019-04-30T01:41:41.156Z,0
2019-04-30T01:42:21.738Z,0
2019-04-30T01:48:26.906Z,0
2019-04-30T01:49:08.594Z,0
2019-04-30T01:49:49.530Z,0
2019-04-30T01:50:29.208Z,0
2019-04-30T01:51:13.263Z,0
2019-04-30T01:51:52.803Z,0
2019-04-30T01:52:35.056Z,0
2019-04-30T01:53:13.031Z,0
2019-04-30T01:53:51.590Z,0
2019-04-30T01:59:58.248Z,0
2019-04-30T02:00:38.924Z,0
2019-04-30T02:01:18.987Z,0
2019-04-30T02:01:58.646Z,0
2019-04-30T02:02:39.491Z,0
2019-04-30T02:03:19.723Z,0
2019-04-30T02:04:00.295Z,0
2019-04-30T02:04:40.879Z,0
2019-04-30T02:05:21.423Z,0
2019-04-30T02:11:26.508Z,0
2019-04-30T02:12:07.086Z,0
2019-04-30T02:12:49.305Z,0
2019-04-30T02:13:29.458Z,0
2019-04-30T02:14:09.155Z,0
2019-04-30T02:14:51.809Z,0
2019-04-30T02:15:30.289Z,0
2019-04-30T02:16:10.855Z,0
2019-04-30T02:16:51.422Z,0
2019-04-30T02:22:58.444Z,0
2019-04-30T02:23:37.084Z,0
2019-04-30T02:24:19.166Z,0
2019-04-30T02:24:58.514Z,0
2019-04-30T02:25:39.865Z,0
2019-04-30T02:26:19.356Z,0
2019-04-30T02:26:59.912Z,0
2019-04-30T02:27:40.492Z,0
2019-04-30T02:28:21.095Z,0
2019-04-30T02:29:01.666Z,0
2019-04-30T02:35:09.391Z,0
2019-04-30T02:35:49.941Z,0
2019-04-30T02:36:29.897Z,0
2019-04-30T02:37:09.691Z,0
2019-04-30T02:37:50.535Z,0
2019-04-30T02:38:30.234Z,0
2019-04-30T02:39:11.040Z,0
2019-04-30T02:39:50.683Z,0
2019-04-30T02:40:31.253Z,0
2019-04-30T02:41:11.806Z,0
2019-04-30T02:43:56.809Z,0
2019-04-30T02:44:37.390Z,0
2019-04-30T02:45:19.802Z,0
2019-04-30T02:45:59.835Z,0
2019-04-30T02:46:40.622Z,0
2019-04-30T02:47:20.220Z,0
2019-04-30T02:48:00.195Z,0
2019-04-30T02:48:40.803Z,0
2019-04-30T02:49:21.374Z,0
2019-04-30T02:50:13.514Z,0
2019-04-30T02:56:09.420Z,0
2019-04-30T02:56:47.505Z,0
2019-04-30T02:57:29.891Z,0
2019-04-30T02:58:09.593Z,0
2019-04-30T02:58:50.444Z,0
2019-04-30T02:59:30.127Z,0
2019-04-30T03:00:10.356Z,0
2019-04-30T03:00:50.882Z,0
2019-04-30T03:01:31.454Z,0
2019-04-30T03:07:36.499Z,4
2019-04-30T03:08:19.838Z,0
2019-04-30T03:09:00.685Z,0
2019-04-30T03:09:39.349Z,4
2019-04-30T03:10:19.764Z,4
2019-04-30T03:11:00.022Z,4
2019-04-30T03:11:40.659Z,4
2019-04-30T03:12:20.503Z,4
2019-04-30T03:13:01.036Z,4
2019-04-30T03:13:42.760Z,8
2019-04-30T03:19:46.611Z,16
2019-04-30T03:20:35.284Z,16
2019-04-30T03:21:09.746Z,16
2019-04-30T03:21:50.181Z,16
2019-04-30T03:22:30.087Z,20
2019-04-30T03:23:09.771Z,20
2019-04-30T03:23:50.368Z,24
2019-04-30T03:24:30.519Z,24
2019-04-30T03:25:11.074Z,28
2019-04-30T03:25:51.630Z,28
2019-04-30T03:31:56.717Z,60
2019-04-30T03:32:42.569Z,64
2019-04-30T03:33:22.253Z,72
2019-04-30T03:34:01.922Z,76
2019-04-30T03:34:41.813Z,80
2019-04-30T03:35:22.632Z,88
2019-04-30T03:36:02.136Z,92
2019-04-30T03:36:40.807Z,100
2019-04-30T03:37:21.129Z,108
2019-04-30T03:38:01.683Z,112
2019-04-30T03:44:18.191Z,188
2019-04-30T03:44:49.547Z,200
2019-04-30T03:45:30.147Z,212
2019-04-30T03:46:10.081Z,220
2019-04-30T03:46:49.865Z,228
2019-04-30T03:47:30.121Z,244
2019-04-30T03:48:10.428Z,252
2019-04-30T03:48:50.888Z,264
2019-04-30T03:49:31.458Z,276
2019-04-30T03:55:36.858Z,404
2019-04-30T03:56:19.992Z,424
2019-04-30T03:57:00.299Z,436
2019-04-30T03:57:39.836Z,456
2019-04-30T04:00:52.997Z,532
2019-04-30T04:01:33.546Z,544
2019-04-30T04:02:14.180Z,564
2019-04-30T04:02:54.743Z,580
2019-04-30T04:03:35.320Z,600
2019-04-30T04:04:15.909Z,612
2019-04-30T04:04:56.461Z,632
2019-04-30T04:05:39.713Z,648
2019-04-30T04:06:21.034Z,664
2019-04-30T04:13:03.181Z,844
2019-04-30T04:13:43.772Z,860
2019-04-30T04:14:24.373Z,872
2019-04-30T04:15:04.934Z,892
2019-04-30T04:15:45.485Z,908
2019-04-30T04:16:26.061Z,924
2019-04-30T04:17:06.642Z,944
2019-04-30T04:17:47.196Z,960
2019-04-30T04:18:30.119Z,980
2019-04-30T04:24:33.031Z,1132
2019-04-30T04:25:13.590Z,1152
2019-04-30T04:25:54.155Z,1168
2019-04-30T04:26:34.731Z,1188
2019-04-30T04:27:15.265Z,1200
2019-04-30T04:27:55.819Z,1216
2019-04-30T04:28:36.386Z,1232
2019-04-30T04:29:19.354Z,1248
2019-04-30T04:30:00.717Z,1264
2019-04-30T04:30:39.199Z,1284
2019-04-30T04:36:02.709Z,1416
2019-04-30T04:36:43.682Z,1436
2019-04-30T04:37:23.809Z,1444
2019-04-30T04:38:04.387Z,1464
2019-04-30T04:38:44.947Z,1480
2019-04-30T04:39:25.498Z,1496
2019-04-30T04:40:06.050Z,1512
2019-04-30T04:40:46.626Z,1528
2019-04-30T04:41:29.412Z,1544
2019-04-30T04:42:10.064Z,1560
2019-04-30T04:48:12.773Z,1704
2019-04-30T04:48:53.351Z,1716
2019-04-30T04:49:33.912Z,1740
2019-04-30T04:50:14.472Z,1764
2019-04-30T04:50:55.058Z,1772
2019-04-30T04:51:39.203Z,1788
2019-04-30T04:52:16.222Z,1812
2019-04-30T04:52:59.266Z,1832
2019-04-30T04:53:37.347Z,1856
2019-04-30T04:54:20.144Z,1868
2019-04-30T05:00:23.069Z,2060
2019-04-30T05:01:03.625Z,2076
2019-04-30T05:01:44.173Z,2104
2019-04-30T05:02:24.770Z,2124
2019-04-30T05:03:05.326Z,2148
2019-04-30T05:03:46.263Z,2168
2019-04-30T05:04:29.742Z,2200
2019-04-30T05:05:09.714Z,2236
2019-04-30T05:08:33.033Z,2388
2019-04-30T05:09:13.880Z,2420
2019-04-30T05:09:54.695Z,2456
2019-04-30T05:10:35.462Z,2476
2019-04-30T05:11:16.214Z,2508
2019-04-30T05:11:58.305Z,2536
2019-04-30T05:12:39.620Z,2576
2019-04-30T05:13:19.182Z,2592
2019-04-30T05:19:23.204Z,2852
2019-04-30T05:20:03.784Z,2872
2019-04-30T05:20:44.356Z,2908
2019-04-30T05:21:25.102Z,2936
2019-04-30T05:24:43.263Z,3100
2019-04-30T05:25:23.695Z,3144
2019-04-30T05:26:04.580Z,3184
2019-04-30T05:26:45.496Z,3232
2019-04-30T05:27:26.364Z,3260
2019-04-30T05:28:08.675Z,3308
2019-04-30T05:33:33.185Z,3668
2019-04-30T05:34:12.850Z,3736
2019-04-30T05:34:53.427Z,3788
2019-04-30T05:35:33.992Z,3852
2019-04-30T05:36:14.539Z,3908
2019-04-30T05:36:55.130Z,3964
2019-04-30T05:37:35.702Z,4028
2019-04-30T05:38:16.276Z,4076
2019-04-30T05:38:58.564Z,4124
2019-04-30T05:45:01.991Z,68480
2019-04-30T05:45:42.613Z,82112
2019-04-30T05:46:23.227Z,73632
2019-04-30T05:47:03.804Z,66272
2019-04-30T05:47:44.359Z,70496
2019-04-30T05:48:24.908Z,82048
2019-04-30T05:49:05.481Z,84608
2019-04-30T05:49:46.049Z,85664
2019-04-30T05:50:26.605Z,85472
2019-04-30T05:51:08.954Z,83872
2019-04-30T05:56:31.936Z,83552
2019-04-30T05:57:12.494Z,83712
2019-04-30T05:57:56.314Z,81632
2019-04-30T05:58:33.613Z,81376
2019-04-30T05:59:14.196Z,83680
2019-04-30T05:59:54.757Z,86176
2019-04-30T06:00:35.307Z,87712
2019-04-30T06:01:15.858Z,87168
2019-04-30T06:01:56.430Z,85312
2019-04-30T06:02:37.017Z,82720
2019-04-30T06:08:42.281Z,87264
2019-04-30T06:09:31.522Z,86048
2019-04-30T06:10:03.505Z,84000
2019-04-30T06:10:44.131Z,82272
2019-04-30T06:11:24.687Z,81216
2019-04-30T06:12:05.346Z,81984
2019-04-30T06:12:45.934Z,84032
2019-04-30T06:13:26.546Z,86848
2019-04-30T06:14:08.643Z,89248
2019-04-30T06:18:52.259Z,82496
2019-04-30T06:19:32.820Z,83392
2019-04-30T06:20:18.192Z,86208
2019-04-30T06:20:53.945Z,89440
2019-04-30T06:21:34.543Z,90176
2019-04-30T06:22:15.114Z,88512
2019-04-30T06:22:55.695Z,87648
2019-04-30T06:23:36.551Z,88064
2019-04-30T06:24:18.753Z,89312
2019-04-30T06:30:12.084Z,92000
2019-04-30T06:30:52.750Z,91424
2019-04-30T06:31:37.274Z,91104
2019-04-30T06:32:15.756Z,90816
2019-04-30T06:32:56.348Z,91040
2019-04-30T06:33:38.745Z,90976
2019-04-30T06:39:42.180Z,94336
2019-04-30T06:40:22.740Z,91200
2019-04-30T06:41:03.319Z,89760
2019-04-30T06:41:43.878Z,89536
2019-04-30T06:42:24.448Z,91232
2019-04-30T06:43:05.014Z,92768
2019-04-30T06:43:45.600Z,92768
2019-04-30T06:44:35.517Z,93504
2019-04-30T06:45:06.713Z,91456
2019-04-30T06:45:48.813Z,88960
2019-04-30T06:51:11.936Z,94528
2019-04-30T06:51:52.514Z,95712
2019-04-30T06:52:33.103Z,95104
2019-04-30T06:53:13.720Z,92352
2019-04-30T06:53:54.308Z,89504
2019-04-30T06:54:34.912Z,91072
2019-04-30T06:55:15.487Z,93312
2019-04-30T06:55:56.052Z,91712
2019-04-30T06:56:38.623Z,83872
2019-04-30T06:57:19.367Z,74656
2019-04-30T07:02:41.939Z,96224
2019-04-30T07:03:22.518Z,97248
2019-04-30T07:04:03.095Z,96320
2019-04-30T07:04:43.720Z,92384
2019-04-30T07:05:24.302Z,88416
2019-04-30T07:06:04.901Z,89376
2019-04-30T07:06:45.520Z,93792
2019-04-30T07:07:36.233Z,96384
2019-04-30T07:08:09.737Z,94144
2019-04-30T07:08:55.499Z,91104
2019-04-30T07:14:12.322Z,91296
2019-04-30T07:14:52.899Z,92608
2019-04-30T07:15:33.474Z,94912
2019-04-30T07:16:14.086Z,97920
2019-04-30T07:16:54.670Z,97952
2019-04-30T07:17:35.261Z,97312
2019-04-30T07:18:15.831Z,95200
2019-04-30T07:18:58.420Z,95904
2019-04-30T07:19:50.913Z,93248
2019-04-30T07:25:42.496Z,96992
2019-04-30T07:26:24.596Z,97632
2019-04-30T07:27:03.667Z,94432
2019-04-30T07:27:44.268Z,92064
2019-04-30T07:28:40.880Z,94112
2019-04-30T07:29:05.470Z,92928
2019-04-30T07:29:46.181Z,90432
2019-04-30T07:30:26.768Z,89952
2019-04-30T07:31:13.438Z,91072
2019-04-30T07:36:45.144Z,96896
2019-04-30T07:37:17.978Z,96800
2019-04-30T07:37:59.178Z,97696
2019-04-30T07:38:35.638Z,97536
2019-04-30T07:39:14.586Z,97536
2019-04-30T07:39:55.161Z,93760
2019-04-30T07:40:35.751Z,88928
2019-04-30T07:41:16.352Z,87072
2019-04-30T07:41:59.785Z,91296
2019-04-30T07:48:02.255Z,95616
2019-04-30T07:48:42.861Z,94592
2019-04-30T07:49:23.441Z,93184
2019-04-30T07:50:04.036Z,92352
2019-04-30T07:50:44.899Z,92000
2019-04-30T07:51:25.899Z,92224
2019-04-30T07:52:06.175Z,90144
2019-04-30T07:52:58.718Z,90816
2019-04-30T07:53:26.978Z,91424
2019-04-30T07:59:32.302Z,83360
2019-04-30T08:00:12.893Z,83040
2019-04-30T08:00:56.099Z,83040
2019-04-30T08:01:34.142Z,79872
2019-04-30T08:02:14.983Z,61728
2019-04-30T08:02:55.322Z,37472
2019-04-30T08:03:36.225Z,21664
2019-04-30T08:04:16.475Z,19904
2019-04-30T08:04:59.745Z,19104
2019-04-30T08:10:21.945Z,16224
2019-04-30T08:11:02.516Z,15872
2019-04-30T08:11:43.690Z,15456
2019-04-30T08:12:29.888Z,14964
2019-04-30T08:13:11.641Z,14544
2019-04-30T08:13:45.915Z,14192
2019-04-30T08:14:26.136Z,13836
2019-04-30T08:15:06.700Z,13452
2019-04-30T08:15:49.419Z,13088
2019-04-30T08:21:12.379Z,10780
2019-04-30T08:21:52.990Z,10548
2019-04-30T08:22:33.589Z,10364
2019-04-30T08:23:24.884Z,10132
2019-04-30T08:23:54.785Z,9944
2019-04-30T08:24:35.376Z,9780
2019-04-30T08:25:18.655Z,9608
2019-04-30T08:25:58.558Z,9420
2019-04-30T08:26:37.152Z,9272
2019-04-30T08:32:01.987Z,8224
2019-04-30T08:32:42.553Z,8092
2019-04-30T08:33:23.230Z,8004
2019-04-30T08:34:03.798Z,7880
2019-04-30T08:34:44.379Z,7768
2019-04-30T08:35:25.011Z,7676
2019-04-30T08:36:05.631Z,7580
2019-04-30T08:36:46.272Z,7488
2019-04-30T08:37:28.644Z,7408
2019-04-30T08:45:05.631Z,6536
2019-04-30T08:45:46.194Z,6480
2019-04-30T08:46:28.513Z,6400
2019-04-30T08:47:08.601Z,6344
2019-04-30T08:47:49.280Z,6304
2019-04-30T08:48:41.867Z,6276
2019-04-30T08:49:09.852Z,6208
2019-04-30T08:49:50.228Z,6128
2019-04-30T08:50:30.372Z,6068
2019-04-30T08:56:35.398Z,5636
2019-04-30T08:57:15.992Z,5596
2019-04-30T08:58:07.435Z,5576
2019-04-30T08:58:39.040Z,5532
2019-04-30T08:59:19.487Z,5512
2019-04-30T08:59:58.661Z,5472
2019-04-30T09:00:38.997Z,5424
2019-04-30T09:01:19.832Z,5392
2019-04-30T09:02:12.709Z,5328
2019-04-30T09:02:40.720Z,5296
2019-04-30T09:08:05.566Z,4988
2019-04-30T09:08:46.140Z,4956
2019-04-30T09:09:26.719Z,4932
2019-04-30T09:10:09.164Z,4896
2019-04-30T09:10:49.029Z,4904
2019-04-30T09:11:35.442Z,4828
2019-04-30T09:12:09.921Z,4772
2019-04-30T09:12:51.914Z,4748
2019-04-30T09:13:30.286Z,4732
2019-04-30T09:19:35.825Z,4584
2019-04-30T09:20:16.326Z,4464
2019-04-30T09:21:04.066Z,4456
2019-04-30T09:21:38.548Z,4444
2019-04-30T09:22:19.447Z,4428
2019-04-30T09:22:59.504Z,4404
2019-04-30T09:23:44.553Z,4364
2019-04-30T09:24:19.865Z,4360
2019-04-30T09:25:00.472Z,4324
2019-04-30T09:30:25.421Z,4196
2019-04-30T09:31:06.033Z,4180
2019-04-30T09:31:46.628Z,4168
2019-04-30T09:32:28.911Z,4144
2019-04-30T09:33:10.768Z,4128
2019-04-30T09:33:49.205Z,4104
2019-04-30T09:34:29.278Z,4104
2019-04-30T09:35:09.658Z,4076
2019-04-30T09:35:50.140Z,4128
2019-04-30T09:36:30.756Z,4064
2019-04-30T09:41:55.408Z,3952
2019-04-30T09:42:36.052Z,3940
2019-04-30T09:43:18.267Z,3952
2019-04-30T09:43:57.241Z,3940
2019-04-30T09:44:38.992Z,3952
2019-04-30T09:45:18.721Z,3908
2019-04-30T09:45:59.325Z,3900
2019-04-30T09:46:39.617Z,3888
2019-04-30T09:47:20.264Z,3888
2019-04-30T09:53:25.602Z,3760
2019-04-30T09:54:06.531Z,3740
2019-04-30T09:54:46.808Z,3728
2019-04-30T09:55:29.024Z,3712
2019-04-30T09:56:09.537Z,3684
2019-04-30T09:56:49.349Z,3676
2019-04-30T09:57:29.130Z,3648
2019-04-30T09:58:16.813Z,3644
2019-04-30T09:58:50.345Z,3640
2019-04-30T10:04:55.944Z,3476
2019-04-30T10:05:36.203Z,3472
2019-04-30T10:06:18.467Z,3500
2019-04-30T10:06:59.412Z,3468
2019-04-30T10:07:39.319Z,3448
2019-04-30T10:08:20.494Z,3436
2019-04-30T10:08:59.703Z,3436
2019-04-30T10:09:39.784Z,3436
2019-04-30T10:10:20.393Z,3432
2019-04-30T10:16:25.738Z,3332
2019-04-30T10:17:06.376Z,3308
2019-04-30T10:17:47.062Z,3292
2019-04-30T10:18:27.621Z,3288
2019-04-30T10:19:10.100Z,3284
2019-04-30T10:19:49.244Z,3264
2019-04-30T10:20:29.399Z,3252
2019-04-30T10:21:09.956Z,3240
2019-04-30T10:21:50.531Z,3216
2019-04-30T10:27:55.773Z,3116
2019-04-30T10:28:36.374Z,3108
2019-04-30T10:29:16.944Z,3092
2019-04-30T10:29:59.312Z,3064
2019-04-30T10:30:38.099Z,3048
2019-04-30T10:31:19.047Z,3052
2019-04-30T10:31:59.211Z,3028
2019-04-30T10:32:39.783Z,3028
2019-04-30T10:33:20.341Z,3004
2019-04-30T10:39:25.511Z,2888
2019-04-30T10:40:06.075Z,2864
2019-04-30T10:40:48.556Z,2864
2019-04-30T10:41:28.732Z,2860
2019-04-30T10:42:07.983Z,2852
2019-04-30T10:42:48.897Z,2848
2019-04-30T10:43:31.902Z,2848
2019-04-30T10:44:09.741Z,2840
2019-04-30T10:44:50.340Z,2836
2019-04-30T10:50:55.571Z,2764
2019-04-30T10:51:36.142Z,2768
2019-04-30T10:52:16.765Z,2756
2019-04-30T10:52:59.079Z,2760
2019-04-30T10:53:37.898Z,2780
2019-04-30T10:54:25.633Z,2744
2019-04-30T10:54:59.581Z,2744
2019-04-30T10:55:39.652Z,2728
2019-04-30T10:56:20.220Z,2732
2019-04-30T11:02:25.482Z,2676
2019-04-30T11:03:17.033Z,2676
2019-04-30T11:03:46.654Z,2672
2019-04-30T11:04:27.264Z,2676
2019-04-30T11:05:07.865Z,2684
2019-04-30T11:05:48.845Z,2656
2019-04-30T11:06:29.034Z,2660
2019-04-30T11:07:09.634Z,2656
2019-04-30T11:07:50.218Z,2644
2019-04-30T11:13:55.421Z,2640
2019-04-30T11:14:36.028Z,2648
2019-04-30T11:15:16.606Z,2640
2019-04-30T11:15:59.006Z,2644
2019-04-30T11:16:37.770Z,2640
2019-04-30T11:17:19.658Z,2644
2019-04-30T11:17:59.649Z,2644
2019-04-30T11:18:39.703Z,2644
2019-04-30T11:19:20.215Z,2648
2019-04-30T11:20:00.861Z,2660
2019-04-30T11:25:26.050Z,2688
2019-04-30T11:26:06.448Z,2708
2019-04-30T11:26:48.961Z,2704
2019-04-30T11:27:27.816Z,2712
2019-04-30T11:28:08.160Z,2716
2019-04-30T11:28:48.582Z,2724
2019-04-30T11:29:30.841Z,2724
2019-04-30T11:30:20.049Z,2728
2019-04-30T11:30:50.320Z,2744
2019-04-30T11:31:30.863Z,2756
2019-04-30T11:36:55.388Z,2808
2019-04-30T11:37:35.999Z,2828
2019-04-30T11:38:16.568Z,2824
2019-04-30T11:38:58.609Z,2856
2019-04-30T11:39:37.801Z,2848
2019-04-30T11:40:18.361Z,2864
2019-04-30T11:40:58.948Z,2864
2019-04-30T11:41:39.622Z,2868
2019-04-30T11:42:20.116Z,2876
2019-04-30T11:43:00.683Z,2880
2019-04-30T11:50:43.790Z,2928
2019-04-30T11:51:26.852Z,2888
2019-04-30T11:52:05.001Z,2932
2019-04-30T11:52:45.575Z,2936
2019-04-30T11:53:28.582Z,2944
2019-04-30T11:54:08.465Z,2948
2019-04-30T11:54:49.693Z,2952
2019-04-30T11:55:29.154Z,2960
2019-04-30T11:56:08.382Z,2964
2019-04-30T12:02:13.607Z,3020
2019-04-30T12:02:54.167Z,3024
2019-04-30T12:03:34.738Z,3036
2019-04-30T12:04:15.288Z,3032
2019-04-30T12:04:55.880Z,3044
2019-04-30T12:05:36.466Z,3056
2019-04-30T12:06:18.483Z,3060
2019-04-30T12:06:57.621Z,3056
2019-04-30T12:07:38.210Z,3064
2019-04-30T12:08:19.415Z,3084
2019-04-30T12:13:43.732Z,3136
2019-04-30T12:14:24.296Z,3140
2019-04-30T12:15:04.876Z,3148
2019-04-30T12:15:45.502Z,3152
2019-04-30T12:16:26.014Z,3144
2019-04-30T12:17:06.580Z,3160
2019-04-30T12:17:47.134Z,3168
2019-04-30T12:18:27.733Z,3196
2019-04-30T12:19:09.010Z,3188
2019-04-30T12:19:48.959Z,3200
2019-04-30T12:23:28.248Z,3248
2019-04-30T12:24:08.823Z,3240
2019-04-30T12:25:01.633Z,3244
2019-04-30T12:25:30.450Z,3252
2019-04-30T12:26:10.551Z,3268
2019-04-30T12:26:51.128Z,3272
2019-04-30T12:27:31.677Z,3288
2019-04-30T12:28:12.275Z,3284
2019-04-30T12:28:52.857Z,3320
2019-04-30T12:35:55.195Z,3312
2019-04-30T12:36:35.773Z,3276
2019-04-30T12:37:16.336Z,3252
2019-04-30T12:37:58.759Z,3292
2019-04-30T12:38:37.520Z,3308
2019-04-30T12:39:18.125Z,3344
2019-04-30T12:39:59.349Z,3368
2019-04-30T12:40:39.334Z,3388
2019-04-30T12:41:19.880Z,3424
2019-04-30T12:47:25.311Z,3392
2019-04-30T12:48:05.930Z,3368
2019-04-30T12:48:46.511Z,3348
2019-04-30T12:49:28.795Z,3420
2019-04-30T12:50:09.510Z,3456
2019-04-30T12:50:49.107Z,3484
2019-04-30T12:51:28.876Z,3516
2019-04-30T12:52:09.454Z,3504
2019-04-30T12:52:50.053Z,3516
2019-04-30T12:58:55.324Z,3696
2019-04-30T12:59:35.903Z,3708
2019-04-30T13:00:16.467Z,3704
2019-04-30T13:00:58.957Z,3652
2019-04-30T13:01:39.754Z,3644
2019-04-30T13:02:19.113Z,3736
2019-04-30T13:02:58.853Z,3784
2019-04-30T13:03:39.873Z,3820
2019-04-30T13:04:20.067Z,3912
2019-04-30T13:10:25.844Z,3720
2019-04-30T13:11:06.228Z,3764
2019-04-30T13:11:47.005Z,3636
2019-04-30T13:12:27.579Z,4012
2019-04-30T13:13:08.499Z,4036
2019-04-30T13:13:50.338Z,4104
2019-04-30T13:14:30.204Z,4092
2019-04-30T13:15:10.056Z,4076
2019-04-30T13:21:15.358Z,4068
2019-04-30T13:21:58.463Z,4120
2019-04-30T13:22:36.552Z,4032
2019-04-30T13:23:18.590Z,4092
2019-04-30T13:23:57.716Z,4032
2019-04-30T13:24:39.807Z,4108
2019-04-30T13:25:29.780Z,4120
2019-04-30T13:26:00.975Z,4104
2019-04-30T13:26:40.086Z,4080
2019-04-30T13:32:04.840Z,4024
2019-04-30T13:32:45.438Z,4196
2019-04-30T13:33:25.993Z,4280
2019-04-30T13:34:08.424Z,4228
2019-04-30T13:34:47.231Z,4200
2019-04-30T13:35:28.969Z,4092
2019-04-30T13:36:08.795Z,4012
2019-04-30T13:36:49.436Z,3892
2019-04-30T13:37:29.661Z,3944
2019-04-30T13:38:10.253Z,3968
2019-04-30T13:43:35.035Z,3856
2019-04-30T13:44:15.624Z,4468
2019-04-30T13:44:56.176Z,3904
2019-04-30T13:45:38.646Z,4000
2019-04-30T13:46:18.532Z,4084
2019-04-30T13:46:57.952Z,4412
2019-04-30T13:47:39.102Z,4708
2019-04-30T13:48:19.698Z,4760
2019-04-30T13:48:59.785Z,4752
2019-04-30T13:55:04.999Z,5076
2019-04-30T13:55:46.008Z,4748
2019-04-30T13:56:26.178Z,4612
2019-04-30T13:57:06.846Z,4596
2019-04-30T13:57:47.438Z,4060
2019-04-30T13:58:28.010Z,3480
2019-04-30T13:59:08.643Z,3408
2019-04-30T13:59:51.009Z,3368
2019-04-30T14:00:29.888Z,3484
2019-04-30T14:06:35.318Z,3300
2019-04-30T14:07:15.909Z,3556
2019-04-30T14:07:56.460Z,3336
2019-04-30T14:08:38.655Z,3220
2019-04-30T14:09:17.621Z,3236
2019-04-30T14:09:58.210Z,3276
2019-04-30T14:10:39.317Z,3432
2019-04-30T14:11:19.421Z,3472
2019-04-30T14:12:00.027Z,3428
2019-04-30T14:18:05.358Z,3872
2019-04-30T14:18:45.929Z,3924
2019-04-30T14:19:26.501Z,3968
2019-04-30T14:20:07.081Z,4016
2019-04-30T14:20:47.651Z,4064
2019-04-30T14:21:33.060Z,4024
2019-04-30T14:22:09.057Z,4048
2019-04-30T14:22:49.453Z,4104
2019-04-30T14:23:30.053Z,4112
2019-04-30T14:31:13.549Z,4368
2019-04-30T14:31:54.112Z,4420
2019-04-30T14:32:34.681Z,4512
2019-04-30T14:33:24.042Z,4512
2019-04-30T14:33:55.825Z,4624
2019-04-30T14:34:36.370Z,4656
2019-04-30T14:35:18.648Z,4736
2019-04-30T14:36:00.437Z,4672
2019-04-30T14:36:39.177Z,5016
2019-04-30T14:42:43.907Z,5056
2019-04-30T14:43:24.556Z,4748
2019-04-30T14:44:04.941Z,4568
2019-04-30T14:46:20.002Z,5324
2019-04-30T14:46:59.606Z,5404
2019-04-30T14:47:41.029Z,5184
2019-04-30T14:48:23.129Z,5068
2019-04-30T14:49:01.747Z,4972
2019-04-30T14:49:42.149Z,4916
2019-04-30T14:50:22.434Z,5164
2019-04-30T14:51:03.095Z,5328
2019-04-30T14:56:29.478Z,5764
2019-04-30T14:57:08.457Z,6040
2019-04-30T14:57:50.917Z,6060
2019-04-30T14:58:29.685Z,5744
2019-04-30T14:59:10.751Z,5640
2019-04-30T14:59:51.459Z,5784
2019-04-30T15:00:32.081Z,5516
2019-04-30T15:01:12.593Z,5816
2019-04-30T15:07:19.439Z,4364
2019-04-30T15:07:59.355Z,4180
2019-04-30T15:08:39.525Z,4140
2019-04-30T15:09:19.628Z,4092
2019-04-30T15:10:00.183Z,4064
2019-04-30T15:10:40.776Z,3924
2019-04-30T15:11:21.329Z,4028
2019-04-30T15:12:04.460Z,3944
2019-04-30T15:12:42.568Z,3964
2019-04-30T15:18:47.760Z,3940
2019-04-30T15:19:28.331Z,4372
2019-04-30T15:20:08.890Z,5088
2019-04-30T15:20:49.833Z,5584
2019-04-30T15:21:30.009Z,5664
2019-04-30T15:22:10.566Z,5644
2019-04-30T15:22:51.135Z,5740
2019-04-30T15:23:31.693Z,5696
2019-04-30T15:24:12.260Z,5732
2019-04-30T15:24:52.832Z,5680
2019-04-30T15:30:58.627Z,4848
2019-04-30T15:31:39.531Z,4816
2019-04-30T15:32:19.156Z,5072
2019-04-30T15:32:59.735Z,4804
2019-04-30T15:33:40.315Z,4656
2019-04-30T15:34:20.879Z,4200
2019-04-30T15:35:01.464Z,4620
2019-04-30T15:35:42.012Z,4348
2019-04-30T15:36:22.605Z,4224
2019-04-30T15:42:27.830Z,3912
2019-04-30T15:43:08.418Z,3536
2019-04-30T15:43:49.281Z,4008
2019-04-30T15:44:30.035Z,4556
2019-04-30T15:45:10.471Z,4840
2019-04-30T15:45:51.085Z,4872
2019-04-30T15:46:31.678Z,4848
2019-04-30T15:47:12.280Z,4724
2019-04-30T15:47:52.842Z,4288
2019-04-30T15:53:19.334Z,3444
2019-04-30T15:53:58.431Z,4168
2019-04-30T15:54:39.350Z,4344
2019-04-30T15:55:20.115Z,4540
2019-04-30T15:56:00.795Z,4932
2019-04-30T15:56:43.619Z,5124
2019-04-30T15:57:22.537Z,5228
2019-04-30T15:58:03.161Z,5216
2019-04-30T16:03:27.936Z,4800
2019-04-30T16:04:10.242Z,4536
2019-04-30T16:04:49.214Z,4604
2019-04-30T16:05:29.622Z,4616
2019-04-30T16:06:10.419Z,4416
2019-04-30T16:09:24.653Z,3940
2019-04-30T16:10:05.287Z,3944
2019-04-30T16:10:45.830Z,4120
2019-04-30T16:11:26.385Z,4228
2019-04-30T16:12:06.939Z,4152
2019-04-30T16:12:48.665Z,4172
2019-04-30T16:13:28.957Z,4064
2019-04-30T16:14:08.647Z,4140
2019-04-30T16:14:49.212Z,4104
2019-04-30T16:20:54.341Z,2676
2019-04-30T16:21:34.899Z,3628
2019-04-30T16:22:15.481Z,3500
2019-04-30T16:22:56.055Z,3660
2019-04-30T16:23:38.463Z,3664
2019-04-30T16:24:18.722Z,3492
2019-04-30T16:25:00.334Z,2744
2019-04-30T16:25:39.021Z,3152
2019-04-30T16:26:19.014Z,3268
2019-04-30T16:26:59.592Z,3432
2019-04-30T16:32:24.637Z,3296
2019-04-30T16:33:05.213Z,3320
2019-04-30T16:33:45.789Z,3648
2019-04-30T16:34:26.378Z,4028
2019-04-30T16:35:08.817Z,4608
2019-04-30T16:35:50.373Z,7580
2019-04-30T16:36:29.101Z,8872
2019-04-30T16:37:08.823Z,9100
2019-04-30T16:37:49.680Z,7708
2019-04-30T16:43:54.792Z,5628
2019-04-30T16:44:35.455Z,3908
2019-04-30T16:45:16.089Z,2916
2019-04-30T16:45:56.691Z,2872
2019-04-30T16:46:37.266Z,3292
2019-04-30T16:47:19.661Z,3628
2019-04-30T16:47:58.419Z,4016
2019-04-30T16:48:39.055Z,4480
2019-04-30T16:49:19.649Z,5852
2019-04-30T16:54:04.559Z,12696